sensor_id;sensor_type;location;lat;lon;timestamp;pressure;altitude;pressure_sealevel;temperature;humidity
11856;BME280;5987;53.140;8.904;2022-12-18T00:02:27;103006.31;;;-9.15;100.00
11856;BME280;5987;53.140;8.904;2022-12-18T00:05:31;102998.94;;;-9.11;100.00
11856;BME280;5987;53.140;8.904;2022-12-18T00:08:35;102991.28;;;-9.11;100.00
11856;BME280;5987;53.140;8.904;2022-12-18T00:11:40;102995.16;;;-9.17;100.00
11856;BME280;5987;53.140;8.904;2022-12-18T00:14:44;103000.47;;;-9.14;100.00
11856;BME280;5987;53.140;8.904;2022-12-18T00:17:48;103002.13;;;-9.14;100.00
11856;BME280;5987;53.140;8.904;2022-12-18T00:20:51;103004.00;;;-9.11;100.00
11856;BME280;5987;53.140;8.904;2022-12-18T00:23:56;103003.84;;;-9.35;100.00
11856;BME280;5987;53.140;8.904;2022-12-18T00:27:01;103013.25;;;-9.34;100.00
11856;BME280;5987;53.140;8.904;2022-12-18T00:30:06;103012.91;;;-9.39;100.00
11856;BME280;5987;53.140;8.904;2022-12-18T00:33:10;103006.91;;;-9.29;100.00
11856;BME280;5987;53.140;8.904;2022-12-18T00:36:17;103002.56;;;-9.30;100.00
11856;BME280;5987;53.140;8.904;2022-12-18T00:39:21;102998.47;;;-9.18;100.00
11856;BME280;5987;53.140;8.904;2022-12-18T00:42:26;102992.84;;;-9.14;100.00
11856;BME280;5987;53.140;8.904;2022-12-18T00:45:47;102997.34;;;-8.99;100.00
11856;BME280;5987;53.140;8.904;2022-12-18T00:48:51;102988.44;;;-8.94;100.00
11856;BME280;5987;53.140;8.904;2022-12-18T00:51:55;102987.41;;;-8.96;100.00
11856;BME280;5987;53.140;8.904;2022-12-18T00:54:58;102988.94;;;-8.98;100.00
11856;BME280;5987;53.140;8.904;2022-12-18T00:58:10;102995.81;;;-8.97;100.00
11856;BME280;5987;53.140;8.904;2022-12-18T01:01:14;103005.44;;;-8.93;100.00
11856;BME280;5987;53.140;8.904;2022-12-18T01:04:18;103006.47;;;-8.91;100.00
11856;BME280;5987;53.140;8.904;2022-12-18T01:07:22;103010.31;;;-8.96;100.00
11856;BME280;5987;53.140;8.904;2022-12-18T01:10:26;103015.81;;;-9.02;100.00
11856;BME280;5987;53.140;8.904;2022-12-18T01:13:31;103016.22;;;-9.07;100.00
11856;BME280;5987;53.140;8.904;2022-12-18T01:16:35;103011.75;;;-9.00;100.00
11856;BME280;5987;53.140;8.904;2022-12-18T01:19:38;103018.84;;;-8.95;100.00
11856;BME280;5987;53.140;8.904;2022-12-18T01:22:42;103019.25;;;-9.01;100.00
11856;BME280;5987;53.140;8.904;2022-12-18T01:25:46;103018.13;;;-9.05;100.00
11856;BME280;5987;53.140;8.904;2022-12-18T01:28:51;103024.75;;;-9.07;100.00
11856;BME280;5987;53.140;8.904;2022-12-18T01:31:55;103025.41;;;-9.09;100.00
11856;BME280;5987;53.140;8.904;2022-12-18T01:34:59;103026.03;;;-9.12;100.00
11856;BME280;5987;53.140;8.904;2022-12-18T01:38:03;103032.00;;;-9.11;100.00
11856;BME280;5987;53.140;8.904;2022-12-18T01:41:08;103040.44;;;-9.12;100.00
11856;BME280;5987;53.140;8.904;2022-12-18T01:44:54;103036.28;;;-9.00;100.00
11856;BME280;5987;53.140;8.904;2022-12-18T01:48:01;103040.09;;;-8.95;100.00
11856;BME280;5987;53.140;8.904;2022-12-18T01:51:10;103031.47;;;-8.97;100.00
11856;BME280;5987;53.140;8.904;2022-12-18T01:54:14;103032.81;;;-8.90;100.00
11856;BME280;5987;53.140;8.904;2022-12-18T01:57:18;103036.78;;;-8.94;100.00
11856;BME280;5987;53.140;8.904;2022-12-18T02:00:25;103033.31;;;-8.94;100.00
11856;BME280;5987;53.140;8.904;2022-12-18T02:03:28;103035.22;;;-8.92;100.00
11856;BME280;5987;53.140;8.904;2022-12-18T02:06:40;103028.63;;;-8.90;100.00
11856;BME280;5987;53.140;8.904;2022-12-18T02:09:49;103030.78;;;-8.94;100.00
11856;BME280;5987;53.140;8.904;2022-12-18T02:13:04;103023.53;;;-8.90;100.00
11856;BME280;5987;53.140;8.904;2022-12-18T02:16:19;103034.53;;;-9.01;100.00
11856;BME280;5987;53.140;8.904;2022-12-18T02:19:47;103031.69;;;-8.94;100.00
11856;BME280;5987;53.140;8.904;2022-12-18T02:23:11;103035.84;;;-8.84;100.00
11856;BME280;5987;53.140;8.904;2022-12-18T02:26:26;103026.94;;;-8.89;100.00
11856;BME280;5987;53.140;8.904;2022-12-18T02:29:37;103022.38;;;-8.93;100.00
11856;BME280;5987;53.140;8.904;2022-12-18T02:32:47;103018.72;;;-8.97;100.00
11856;BME280;5987;53.140;8.904;2022-12-18T02:35:55;103023.66;;;-8.88;100.00
11856;BME280;5987;53.140;8.904;2022-12-18T02:39:02;103022.88;;;-8.87;100.00
11856;BME280;5987;53.140;8.904;2022-12-18T02:42:09;103015.44;;;-9.06;100.00
11856;BME280;5987;53.140;8.904;2022-12-18T02:45:14;103013.03;;;-9.05;100.00
11856;BME280;5987;53.140;8.904;2022-12-18T02:48:22;103007.06;;;-9.05;100.00
11856;BME280;5987;53.140;8.904;2022-12-18T02:51:34;103021.91;;;-9.00;100.00
11856;BME280;5987;53.140;8.904;2022-12-18T02:54:59;103021.91;;;-9.00;100.00
11856;BME280;5987;53.140;8.904;2022-12-18T02:58:16;103022.56;;;-9.02;100.00
11856;BME280;5987;53.140;8.904;2022-12-18T03:01:32;103027.19;;;-9.08;100.00
11856;BME280;5987;53.140;8.904;2022-12-18T03:04:43;103027.72;;;-9.12;100.00
11856;BME280;5987;53.140;8.904;2022-12-18T03:07:56;103029.22;;;-9.15;100.00
11856;BME280;5987;53.140;8.904;2022-12-18T03:11:04;103034.03;;;-9.07;100.00
11856;BME280;5987;53.140;8.904;2022-12-18T03:14:13;103033.03;;;-9.09;100.00
11856;BME280;5987;53.140;8.904;2022-12-18T03:17:22;103030.25;;;-9.12;100.00
11856;BME280;5987;53.140;8.904;2022-12-18T03:20:32;103033.16;;;-9.08;100.00
11856;BME280;5987;53.140;8.904;2022-12-18T03:23:45;103035.97;;;-9.15;100.00
11856;BME280;5987;53.140;8.904;2022-12-18T03:27:00;103038.41;;;-9.17;100.00
11856;BME280;5987;53.140;8.904;2022-12-18T03:30:10;103038.88;;;-9.10;100.00
11856;BME280;5987;53.140;8.904;2022-12-18T03:33:20;103042.22;;;-9.22;100.00
11856;BME280;5987;53.140;8.904;2022-12-18T03:36:27;103038.81;;;-9.22;100.00
11856;BME280;5987;53.140;8.904;2022-12-18T03:39:34;103042.47;;;-9.19;100.00
11856;BME280;5987;53.140;8.904;2022-12-18T03:42:48;103045.66;;;-9.21;100.00
11856;BME280;5987;53.140;8.904;2022-12-18T03:46:04;103038.41;;;-9.17;100.00
11856;BME280;5987;53.140;8.904;2022-12-18T03:49:12;103034.66;;;-9.10;100.00
11856;BME280;5987;53.140;8.904;2022-12-18T03:52:27;103041.88;;;-9.26;100.00
11856;BME280;5987;53.140;8.904;2022-12-18T03:55:35;103055.38;;;-9.38;100.00
11856;BME280;5987;53.140;8.904;2022-12-18T03:58:42;103050.94;;;-9.40;100.00
11856;BME280;5987;53.140;8.904;2022-12-18T04:01:51;103045.50;;;-9.45;100.00
11856;BME280;5987;53.140;8.904;2022-12-18T04:05:02;103031.63;;;-9.49;100.00
11856;BME280;5987;53.140;8.904;2022-12-18T04:08:07;103029.59;;;-9.53;100.00
11856;BME280;5987;53.140;8.904;2022-12-18T04:11:11;103020.94;;;-9.44;100.00
11856;BME280;5987;53.140;8.904;2022-12-18T04:14:15;103018.66;;;-9.52;100.00
11856;BME280;5987;53.140;8.904;2022-12-18T04:17:21;103009.41;;;-9.61;100.00
11856;BME280;5987;53.140;8.904;2022-12-18T04:20:25;103000.63;;;-9.65;100.00
11856;BME280;5987;53.140;8.904;2022-12-18T04:23:28;103016.66;;;-9.56;100.00
11856;BME280;5987;53.140;8.904;2022-12-18T04:26:32;103012.72;;;-9.62;100.00
11856;BME280;5987;53.140;8.904;2022-12-18T04:29:36;103015.00;;;-9.66;100.00
11856;BME280;5987;53.140;8.904;2022-12-18T04:32:41;103015.66;;;-9.68;100.00
11856;BME280;5987;53.140;8.904;2022-12-18T04:35:51;103022.53;;;-9.67;100.00
11856;BME280;5987;53.140;8.904;2022-12-18T04:38:55;103023.16;;;-9.70;100.00
11856;BME280;5987;53.140;8.904;2022-12-18T04:41:59;103028.72;;;-9.63;100.00
11856;BME280;5987;53.140;8.904;2022-12-18T04:45:03;103030.38;;;-9.64;100.00
11856;BME280;5987;53.140;8.904;2022-12-18T04:48:09;103035.97;;;-9.68;100.00
11856;BME280;5987;53.140;8.904;2022-12-18T04:51:13;103031.38;;;-9.62;100.00
11856;BME280;5987;53.140;8.904;2022-12-18T04:54:20;103033.41;;;-9.58;100.00
11856;BME280;5987;53.140;8.904;2022-12-18T04:57:24;103032.78;;;-9.55;100.00
11856;BME280;5987;53.140;8.904;2022-12-18T05:00:28;103037.75;;;-9.57;100.00
11856;BME280;5987;53.140;8.904;2022-12-18T05:03:34;103036.47;;;-9.52;100.00
11856;BME280;5987;53.140;8.904;2022-12-18T05:06:39;103037.75;;;-9.57;100.00
11856;BME280;5987;53.140;8.904;2022-12-18T05:09:42;103042.22;;;-9.64;100.00
11856;BME280;5987;53.140;8.904;2022-12-18T05:12:46;103046.91;;;-9.59;100.00
11856;BME280;5987;53.140;8.904;2022-12-18T05:16:03;103050.97;;;-9.61;100.00
11856;BME280;5987;53.140;8.904;2022-12-18T05:19:09;103056.06;;;-9.61;100.00
11856;BME280;5987;53.140;8.904;2022-12-18T05:22:13;103060.91;;;-9.64;100.00
11856;BME280;5987;53.140;8.904;2022-12-18T05:25:16;103061.78;;;-9.63;100.00
11856;BME280;5987;53.140;8.904;2022-12-18T05:28:23;103075.00;;;-9.57;100.00
11856;BME280;5987;53.140;8.904;2022-12-18T05:31:27;103076.25;;;-9.52;100.00
11856;BME280;5987;53.140;8.904;2022-12-18T05:34:37;103085.03;;;-9.49;100.00
11856;BME280;5987;53.140;8.904;2022-12-18T05:37:40;103078.66;;;-9.54;100.00
11856;BME280;5987;53.140;8.904;2022-12-18T05:40:44;103074.63;;;-9.52;100.00
11856;BME280;5987;53.140;8.904;2022-12-18T05:43:48;103074.88;;;-9.59;100.00
11856;BME280;5987;53.140;8.904;2022-12-18T05:46:52;103071.94;;;-9.53;100.00
11856;BME280;5987;53.140;8.904;2022-12-18T05:49:57;103073.47;;;-9.66;100.00
11856;BME280;5987;53.140;8.904;2022-12-18T05:53:01;103074.88;;;-9.59;100.00
11856;BME280;5987;53.140;8.904;2022-12-18T05:56:07;103066.97;;;-9.62;100.00
11856;BME280;5987;53.140;8.904;2022-12-18T05:59:11;103064.19;;;-9.65;100.00
11856;BME280;5987;53.140;8.904;2022-12-18T06:02:15;103064.59;;;-9.60;100.00
11856;BME280;5987;53.140;8.904;2022-12-18T06:05:20;103066.72;;;-9.65;100.00
11856;BME280;5987;53.140;8.904;2022-12-18T06:08:24;103066.38;;;-9.70;100.00
11856;BME280;5987;53.140;8.904;2022-12-18T06:11:28;103056.81;;;-9.62;100.00
11856;BME280;5987;53.140;8.904;2022-12-18T06:14:31;103077.44;;;-9.59;100.00
11856;BME280;5987;53.140;8.904;2022-12-18T06:17:36;103072.59;;;-9.56;100.00
11856;BME280;5987;53.140;8.904;2022-12-18T06:20:41;103080.22;;;-9.56;100.00
11856;BME280;5987;53.140;8.904;2022-12-18T06:23:45;103077.63;;;-9.45;100.00
11856;BME280;5987;53.140;8.904;2022-12-18T06:26:48;103082.47;;;-9.49;100.00
11856;BME280;5987;53.140;8.904;2022-12-18T06:29:52;103079.94;;;-9.49;100.00
11856;BME280;5987;53.140;8.904;2022-12-18T06:32:55;103087.44;;;-9.50;100.00
11856;BME280;5987;53.140;8.904;2022-12-18T06:36:04;103089.63;;;-9.55;100.00
11856;BME280;5987;53.140;8.904;2022-12-18T06:39:08;103091.25;;;-9.55;100.00
11856;BME280;5987;53.140;8.904;2022-12-18T06:42:12;103083.50;;;-9.57;100.00
11856;BME280;5987;53.140;8.904;2022-12-18T06:45:15;103082.22;;;-9.62;100.00
11856;BME280;5987;53.140;8.904;2022-12-18T06:48:19;103079.69;;;-9.62;100.00
11856;BME280;5987;53.140;8.904;2022-12-18T06:51:25;103072.34;;;-9.59;100.00
11856;BME280;5987;53.140;8.904;2022-12-18T06:54:28;103081.75;;;-9.68;100.00
11856;BME280;5987;53.140;8.904;2022-12-18T06:57:32;103093.94;;;-9.64;100.00
11856;BME280;5987;53.140;8.904;2022-12-18T07:00:36;103096.50;;;-9.64;100.00
11856;BME280;5987;53.140;8.904;2022-12-18T07:03:41;103097.25;;;-9.65;100.00
11856;BME280;5987;53.140;8.904;2022-12-18T07:06:47;103099.03;;;-9.64;100.00
11856;BME280;5987;53.140;8.904;2022-12-18T07:09:51;103100.31;;;-9.59;100.00
11856;BME280;5987;53.140;8.904;2022-12-18T07:12:55;103108.81;;;-9.58;100.00
11856;BME280;5987;53.140;8.904;2022-12-18T07:16:06;103117.44;;;-9.56;100.00
11856;BME280;5987;53.140;8.904;2022-12-18T07:19:19;103120.13;;;-9.55;100.00
11856;BME280;5987;53.140;8.904;2022-12-18T07:22:27;103118.34;;;-9.56;100.00
11856;BME280;5987;53.140;8.904;2022-12-18T07:25:33;103113.25;;;-9.56;100.00
11856;BME280;5987;53.140;8.904;2022-12-18T07:28:39;103113.78;;;-9.60;100.00
11856;BME280;5987;53.140;8.904;2022-12-18T07:31:43;103116.31;;;-9.60;100.00
11856;BME280;5987;53.140;8.904;2022-12-18T07:34:47;103113.75;;;-9.50;100.00
11856;BME280;5987;53.140;8.904;2022-12-18T07:37:52;103113.75;;;-9.50;100.00
11856;BME280;5987;53.140;8.904;2022-12-18T07:41:00;103113.13;;;-9.47;100.00
11856;BME280;5987;53.140;8.904;2022-12-18T07:44:04;103115.28;;;-9.41;100.00
11856;BME280;5987;53.140;8.904;2022-12-18T07:47:07;103111.09;;;-9.51;100.00
11856;BME280;5987;53.140;8.904;2022-12-18T07:50:13;103109.44;;;-9.40;100.00
11856;BME280;5987;53.140;8.904;2022-12-18T07:53:19;103103.31;;;-9.32;100.00
11856;BME280;5987;53.140;8.904;2022-12-18T07:56:23;103092.47;;;-9.19;100.00
11856;BME280;5987;53.140;8.904;2022-12-18T07:59:29;103090.16;;;-9.16;100.00
11856;BME280;5987;53.140;8.904;2022-12-18T08:02:32;103096.53;;;-9.21;100.00
11856;BME280;5987;53.140;8.904;2022-12-18T08:05:36;103097.16;;;-9.14;100.00
11856;BME280;5987;53.140;8.904;2022-12-18T08:08:41;103096.75;;;-9.08;100.00
11856;BME280;5987;53.140;8.904;2022-12-18T08:11:45;103101.69;;;-8.99;100.00
11856;BME280;5987;53.140;8.904;2022-12-18T08:14:49;103092.78;;;-8.94;100.00
11856;BME280;5987;53.140;8.904;2022-12-18T08:17:56;103089.31;;;-8.94;100.00
11856;BME280;5987;53.140;8.904;2022-12-18T08:21:09;103092.25;;;-8.90;100.00
11856;BME280;5987;53.140;8.904;2022-12-18T08:24:14;103085.09;;;-8.84;100.00
11856;BME280;5987;53.140;8.904;2022-12-18T08:27:18;103090.81;;;-8.76;100.00
11856;BME280;5987;53.140;8.904;2022-12-18T08:30:31;103093.06;;;-8.69;100.00
11856;BME280;5987;53.140;8.904;2022-12-18T08:33:35;103094.13;;;-8.55;100.00
11856;BME280;5987;53.140;8.904;2022-12-18T08:36:40;103103.41;;;-8.55;100.00
11856;BME280;5987;53.140;8.904;2022-12-18T08:39:45;103104.91;;;-8.47;100.00
11856;BME280;5987;53.140;8.904;2022-12-18T08:42:49;103094.88;;;-8.34;100.00
11856;BME280;5987;53.140;8.904;2022-12-18T08:46:10;103098.53;;;-8.30;100.00
11856;BME280;5987;53.140;8.904;2022-12-18T08:49:14;103096.69;;;-8.21;100.00
11856;BME280;5987;53.140;8.904;2022-12-18T08:52:18;103091.41;;;-8.12;100.00
11856;BME280;5987;53.140;8.904;2022-12-18T08:55:23;103085.69;;;-7.98;100.00
11856;BME280;5987;53.140;8.904;2022-12-18T08:58:27;103087.16;;;-7.89;100.00
11856;BME280;5987;53.140;8.904;2022-12-18T09:01:31;103072.03;;;-7.76;100.00
11856;BME280;5987;53.140;8.904;2022-12-18T09:04:36;103083.84;;;-7.77;100.00
11856;BME280;5987;53.140;8.904;2022-12-18T09:07:42;103073.56;;;-7.78;100.00
11856;BME280;5987;53.140;8.904;2022-12-18T09:10:49;103070.69;;;-7.71;100.00
11856;BME280;5987;53.140;8.904;2022-12-18T09:13:54;103078.16;;;-7.62;100.00
11856;BME280;5987;53.140;8.904;2022-12-18T09:16:58;103083.78;;;-7.54;100.00
11856;BME280;5987;53.140;8.904;2022-12-18T09:20:02;103089.78;;;-7.54;100.00
11856;BME280;5987;53.140;8.904;2022-12-18T09:23:07;103090.56;;;-7.43;100.00
11856;BME280;5987;53.140;8.904;2022-12-18T09:26:12;103086.03;;;-7.35;100.00
11856;BME280;5987;53.140;8.904;2022-12-18T09:29:16;103085.47;;;-7.19;100.00
11856;BME280;5987;53.140;8.904;2022-12-18T09:32:20;103081.72;;;-7.13;100.00
11856;BME280;5987;53.140;8.904;2022-12-18T09:35:23;103091.34;;;-6.97;100.00
11856;BME280;5987;53.140;8.904;2022-12-18T09:38:27;103101.78;;;-6.82;100.00
11856;BME280;5987;53.140;8.904;2022-12-18T09:41:43;103102.53;;;-6.71;100.00
11856;BME280;5987;53.140;8.904;2022-12-18T09:44:52;103104.19;;;-6.72;100.00
11856;BME280;5987;53.140;8.904;2022-12-18T09:47:57;103104.88;;;-6.62;100.00
11856;BME280;5987;53.140;8.904;2022-12-18T09:51:14;103096.59;;;-6.58;100.00
11856;BME280;5987;53.140;8.904;2022-12-18T09:54:24;103102.84;;;-6.55;100.00
11856;BME280;5987;53.140;8.904;2022-12-18T09:57:33;103113.00;;;-6.43;100.00
11856;BME280;5987;53.140;8.904;2022-12-18T10:00:40;103118.34;;;-6.40;100.00
11856;BME280;5987;53.140;8.904;2022-12-18T10:03:47;103116.31;;;-6.32;100.00
11856;BME280;5987;53.140;8.904;2022-12-18T10:07:02;103113.41;;;-6.25;100.00
11856;BME280;5987;53.140;8.904;2022-12-18T10:10:31;103104.09;;;-6.24;100.00
11856;BME280;5987;53.140;8.904;2022-12-18T10:13:47;103104.84;;;-6.25;100.00
11856;BME280;5987;53.140;8.904;2022-12-18T10:17:06;103102.94;;;-6.16;100.00
11856;BME280;5987;53.140;8.904;2022-12-18T10:20:24;103097.94;;;-6.14;100.00
11856;BME280;5987;53.140;8.904;2022-12-18T10:23:38;103091.78;;;-6.05;100.00
11856;BME280;5987;53.140;8.904;2022-12-18T10:26:49;103094.22;;;-5.93;100.00
11856;BME280;5987;53.140;8.904;2022-12-18T10:29:57;103078.09;;;-5.92;100.00
11856;BME280;5987;53.140;8.904;2022-12-18T10:33:02;103073.97;;;-5.90;100.00
11856;BME280;5987;53.140;8.904;2022-12-18T10:36:07;103084.97;;;-5.91;100.00
11856;BME280;5987;53.140;8.904;2022-12-18T10:39:20;103083.72;;;-5.84;100.00
11856;BME280;5987;53.140;8.904;2022-12-18T10:42:24;103070.81;;;-5.86;100.00
11856;BME280;5987;53.140;8.904;2022-12-18T10:45:30;103064.47;;;-5.79;100.00
11856;BME280;5987;53.140;8.904;2022-12-18T10:48:40;103065.44;;;-5.77;100.00
11856;BME280;5987;53.140;8.904;2022-12-18T10:52:04;103076.66;;;-5.75;100.00
11856;BME280;5987;53.140;8.904;2022-12-18T10:55:17;103074.41;;;-5.70;100.00
11856;BME280;5987;53.140;8.904;2022-12-18T10:58:28;103075.91;;;-5.74;100.00
11856;BME280;5987;53.140;8.904;2022-12-18T11:01:51;103072.16;;;-5.65;100.00
11856;BME280;5987;53.140;8.904;2022-12-18T11:04:57;103063.19;;;-5.59;100.00
11856;BME280;5987;53.140;8.904;2022-12-18T11:08:01;103041.66;;;-5.49;100.00
11856;BME280;5987;53.140;8.904;2022-12-18T11:11:16;103035.25;;;-5.42;100.00
11856;BME280;5987;53.140;8.904;2022-12-18T11:14:25;103028.38;;;-5.30;100.00
11856;BME280;5987;53.140;8.904;2022-12-18T11:17:35;103024.22;;;-5.28;100.00
11856;BME280;5987;53.140;8.904;2022-12-18T11:20:39;103011.94;;;-5.20;100.00
11856;BME280;5987;53.140;8.904;2022-12-18T11:23:49;103021.56;;;-5.16;100.00
11856;BME280;5987;53.140;8.904;2022-12-18T11:26:54;103001.91;;;-5.02;100.00
11856;BME280;5987;53.140;8.904;2022-12-18T11:30:20;102994.72;;;-4.94;100.00
11856;BME280;5987;53.140;8.904;2022-12-18T11:33:26;102989.78;;;-4.91;100.00
11856;BME280;5987;53.140;8.904;2022-12-18T11:36:36;102990.38;;;-4.82;100.00
11856;BME280;5987;53.140;8.904;2022-12-18T11:39:49;102988.84;;;-4.65;100.00
11856;BME280;5987;53.140;8.904;2022-12-18T11:43:01;102991.53;;;-4.49;100.00
11856;BME280;5987;53.140;8.904;2022-12-18T11:46:13;102981.38;;;-4.32;100.00
11856;BME280;5987;53.140;8.904;2022-12-18T11:49:29;102972.63;;;-4.21;100.00
11856;BME280;5987;53.140;8.904;2022-12-18T11:52:40;102964.75;;;-3.94;100.00
11856;BME280;5987;53.140;8.904;2022-12-18T11:55:59;102953.16;;;-3.87;100.00
11856;BME280;5987;53.140;8.904;2022-12-18T11:59:15;102942.19;;;-3.70;100.00
11856;BME280;5987;53.140;8.904;2022-12-18T12:02:43;102937.31;;;-3.80;100.00
11856;BME280;5987;53.140;8.904;2022-12-18T12:06:08;102942.91;;;-3.72;100.00
11856;BME280;5987;53.140;8.904;2022-12-18T12:09:26;102936.13;;;-3.55;100.00
11856;BME280;5987;53.140;8.904;2022-12-18T12:12:49;102930.59;;;-3.47;100.00
11856;BME280;5987;53.140;8.904;2022-12-18T12:16:11;102925.19;;;-3.68;100.00
11856;BME280;5987;53.140;8.904;2022-12-18T12:19:34;102914.38;;;-3.62;100.00
11856;BME280;5987;53.140;8.904;2022-12-18T12:22:58;102916.28;;;-3.43;100.00
11856;BME280;5987;53.140;8.904;2022-12-18T12:26:10;102915.13;;;-3.48;100.00
11856;BME280;5987;53.140;8.904;2022-12-18T12:29:36;102920.00;;;-3.53;100.00
11856;BME280;5987;53.140;8.904;2022-12-18T12:33:02;102914.50;;;-3.44;100.00
11856;BME280;5987;53.140;8.904;2022-12-18T12:36:17;102907.56;;;-3.45;100.00
11856;BME280;5987;53.140;8.904;2022-12-18T12:39:31;102899.25;;;-3.41;100.00
11856;BME280;5987;53.140;8.904;2022-12-18T12:42:42;102903.59;;;-3.40;100.00
11856;BME280;5987;53.140;8.904;2022-12-18T12:46:09;102889.97;;;-3.39;100.00
11856;BME280;5987;53.140;8.904;2022-12-18T12:49:18;102890.22;;;-3.49;100.00
11856;BME280;5987;53.140;8.904;2022-12-18T12:52:34;102888.72;;;-3.46;100.00
11856;BME280;5987;53.140;8.904;2022-12-18T12:55:42;102884.06;;;-3.53;100.00
11856;BME280;5987;53.140;8.904;2022-12-18T12:58:58;102881.16;;;-3.59;100.00
11856;BME280;5987;53.140;8.904;2022-12-18T13:02:17;102882.06;;;-3.58;100.00
11856;BME280;5987;53.140;8.904;2022-12-18T13:05:33;102884.44;;;-3.62;100.00
11856;BME280;5987;53.140;8.904;2022-12-18T13:08:55;102893.97;;;-3.59;100.00
11856;BME280;5987;53.140;8.904;2022-12-18T13:12:08;102881.63;;;-3.66;100.00
11856;BME280;5987;53.140;8.904;2022-12-18T13:16:05;102895.44;;;-3.64;100.00
11856;BME280;5987;53.140;8.904;2022-12-18T13:19:23;102885.16;;;-3.64;100.00
11856;BME280;5987;53.140;8.904;2022-12-18T13:22:34;102866.13;;;-3.68;100.00
11856;BME280;5987;53.140;8.904;2022-12-18T13:25:39;102851.69;;;-3.66;100.00
11856;BME280;5987;53.140;8.904;2022-12-18T13:28:54;102846.91;;;-3.59;100.00
11856;BME280;5987;53.140;8.904;2022-12-18T13:32:01;102847.44;;;-3.65;100.00
11856;BME280;5987;53.140;8.904;2022-12-18T13:35:41;102836.94;;;-3.70;100.00
11856;BME280;5987;53.140;8.904;2022-12-18T13:38:45;102837.75;;;-3.71;100.00
11856;BME280;5987;53.140;8.904;2022-12-18T13:41:52;102844.72;;;-3.68;100.00
11856;BME280;5987;53.140;8.904;2022-12-18T13:44:58;102855.06;;;-3.67;100.00
11856;BME280;5987;53.140;8.904;2022-12-18T13:48:03;102858.44;;;-3.68;100.00
11856;BME280;5987;53.140;8.904;2022-12-18T13:51:10;102852.50;;;-3.67;100.00
11856;BME280;5987;53.140;8.904;2022-12-18T13:54:20;102848.25;;;-3.66;100.00
11856;BME280;5987;53.140;8.904;2022-12-18T13:57:28;102826.19;;;-3.63;100.00
11856;BME280;5987;53.140;8.904;2022-12-18T14:00:34;102810.38;;;-3.70;100.00
11856;BME280;5987;53.140;8.904;2022-12-18T14:03:39;102808.72;;;-3.70;100.00
11856;BME280;5987;53.140;8.904;2022-12-18T14:06:45;102805.00;;;-3.75;100.00
11856;BME280;5987;53.140;8.904;2022-12-18T14:09:53;102812.06;;;-3.71;100.00
11856;BME280;5987;53.140;8.904;2022-12-18T14:13:27;102806.78;;;-3.74;100.00
11856;BME280;5987;53.140;8.904;2022-12-18T14:16:34;102801.00;;;-3.70;100.00
11856;BME280;5987;53.140;8.904;2022-12-18T14:19:43;102804.59;;;-3.66;100.00
11856;BME280;5987;53.140;8.904;2022-12-18T14:22:49;102806.38;;;-3.65;100.00
11856;BME280;5987;53.140;8.904;2022-12-18T14:25:53;102793.47;;;-3.67;100.00
11856;BME280;5987;53.140;8.904;2022-12-18T14:29:14;102791.78;;;-3.66;100.00
11856;BME280;5987;53.140;8.904;2022-12-18T14:32:24;102783.03;;;-3.70;100.00
11856;BME280;5987;53.140;8.904;2022-12-18T14:35:28;102774.34;;;-3.72;100.00
11856;BME280;5987;53.140;8.904;2022-12-18T14:38:35;102783.19;;;-3.67;100.00
11856;BME280;5987;53.140;8.904;2022-12-18T14:41:39;102777.16;;;-3.67;100.00
11856;BME280;5987;53.140;8.904;2022-12-18T14:44:44;102762.59;;;-3.68;100.00
11856;BME280;5987;53.140;8.904;2022-12-18T14:48:16;102756.38;;;-3.72;100.00
11856;BME280;5987;53.140;8.904;2022-12-18T14:51:25;102748.84;;;-3.69;100.00
11856;BME280;5987;53.140;8.904;2022-12-18T14:54:31;102756.53;;;-3.69;100.00
11856;BME280;5987;53.140;8.904;2022-12-18T14:57:36;102749.66;;;-3.70;100.00
11856;BME280;5987;53.140;8.904;2022-12-18T15:00:43;102743.25;;;-3.78;100.00
11856;BME280;5987;53.140;8.904;2022-12-18T15:03:50;102743.72;;;-3.85;100.00
11856;BME280;5987;53.140;8.904;2022-12-18T15:07:14;102744.44;;;-3.88;100.00
11856;BME280;5987;53.140;8.904;2022-12-18T15:10:21;102735.03;;;-3.87;100.00
11856;BME280;5987;53.140;8.904;2022-12-18T15:13:26;102733.78;;;-3.79;100.00
11856;BME280;5987;53.140;8.904;2022-12-18T15:16:31;102727.50;;;-3.84;100.00
11856;BME280;5987;53.140;8.904;2022-12-18T15:19:40;102734.56;;;-3.80;100.00
11856;BME280;5987;53.140;8.904;2022-12-18T15:22:47;102730.34;;;-3.80;100.00
11856;BME280;5987;53.140;8.904;2022-12-18T15:25:57;102717.44;;;-3.81;100.00
11856;BME280;5987;53.140;8.904;2022-12-18T15:29:01;102715.72;;;-3.81;100.00
11856;BME280;5987;53.140;8.904;2022-12-18T15:32:19;102713.16;;;-3.81;100.00
11856;BME280;5987;53.140;8.904;2022-12-18T15:35:26;102695.44;;;-3.76;100.00
11856;BME280;5987;53.140;8.904;2022-12-18T15:38:31;102686.78;;;-3.78;100.00
11856;BME280;5987;53.140;8.904;2022-12-18T15:41:36;102689.72;;;-3.70;100.00
11856;BME280;5987;53.140;8.904;2022-12-18T15:44:40;102681.94;;;-3.55;100.00
11856;BME280;5987;53.140;8.904;2022-12-18T15:47:44;102664.13;;;-3.52;100.00
11856;BME280;5987;53.140;8.904;2022-12-18T15:50:50;102664.91;;;-3.37;100.00
11856;BME280;5987;53.140;8.904;2022-12-18T15:53:59;102665.47;;;-3.42;100.00
11856;BME280;5987;53.140;8.904;2022-12-18T15:57:04;102673.00;;;-3.11;100.00
11856;BME280;5987;53.140;8.904;2022-12-18T16:00:25;102663.06;;;-3.39;100.00
11856;BME280;5987;53.140;8.904;2022-12-18T16:03:29;102662.69;;;-3.47;100.00
11856;BME280;5987;53.140;8.904;2022-12-18T16:06:35;102670.31;;;-3.49;100.00
11856;BME280;5987;53.140;8.904;2022-12-18T16:09:59;102657.69;;;-3.44;100.00
11856;BME280;5987;53.140;8.904;2022-12-18T16:13:04;102658.31;;;-3.32;100.00
11856;BME280;5987;53.140;8.904;2022-12-18T16:16:08;102657.81;;;-3.24;100.00
11856;BME280;5987;53.140;8.904;2022-12-18T16:19:12;102639.19;;;-3.20;100.00
11856;BME280;5987;53.140;8.904;2022-12-18T16:22:21;102629.19;;;-3.14;100.00
11856;BME280;5987;53.140;8.904;2022-12-18T16:25:28;102607.84;;;-3.13;100.00
11856;BME280;5987;53.140;8.904;2022-12-18T16:28:32;102606.53;;;-3.05;100.00